createdAt,value
2023-04-07T00:02:06.442Z,8.00
2023-04-07T00:04:54.156Z,8.00
2023-04-07T00:07:52.285Z,7.90
2023-04-07T00:10:43.935Z,7.90
2023-04-07T00:13:31.524Z,7.90
2023-04-07T00:16:21.082Z,7.90
2023-04-07T00:19:08.800Z,8.00
2023-04-07T00:21:56.980Z,7.60
2023-04-07T00:24:44.740Z,7.90
2023-04-07T00:27:32.626Z,7.90
2023-04-07T00:30:20.429Z,7.80
2023-04-07T00:33:09.560Z,7.90
2023-04-07T00:35:58.723Z,7.70
2023-04-07T00:38:48.177Z,7.80
2023-04-07T00:41:35.710Z,7.80
2023-04-07T00:44:23.246Z,7.80
2023-04-07T00:47:10.962Z,7.80
2023-04-07T00:49:59.993Z,7.80
2023-04-07T00:52:47.599Z,7.80
2023-04-07T00:55:34.799Z,7.70
2023-04-07T00:58:22.480Z,7.70
2023-04-07T01:01:11.407Z,7.80
2023-04-07T01:04:01.107Z,8.20
2023-04-07T01:06:52.100Z,7.80
2023-04-07T01:09:46.901Z,7.70
2023-04-07T01:12:37.432Z,7.80
2023-04-07T01:15:26.359Z,9.60
2023-04-07T01:18:18.900Z,7.80
2023-04-07T01:21:07.985Z,7.80
2023-04-07T01:24:05.022Z,7.80
2023-04-07T01:26:52.780Z,7.80
2023-04-07T01:29:48.466Z,7.80
2023-04-07T01:32:36.957Z,7.80
2023-04-07T01:35:24.732Z,7.80
2023-04-07T01:38:13.243Z,7.80
2023-04-07T01:41:02.065Z,7.70
2023-04-07T01:43:50.697Z,7.70
2023-04-07T01:46:39.640Z,7.70
2023-04-07T01:49:27.635Z,7.70
2023-04-07T01:52:15.755Z,7.60
2023-04-07T01:55:03.698Z,7.50
2023-04-07T01:57:54.819Z,8.10
2023-04-07T02:00:42.649Z,7.50
2023-04-07T02:03:40.806Z,7.40
2023-04-07T02:06:32.143Z,7.40
2023-04-07T02:09:21.761Z,7.30
2023-04-07T02:12:09.556Z,7.30
2023-04-07T02:15:02.021Z,7.10
2023-04-07T02:17:51.341Z,7.10
2023-04-07T02:20:41.147Z,7.20
2023-04-07T02:23:31.109Z,7.10
2023-04-07T02:26:18.510Z,7.30
2023-04-07T02:29:06.408Z,7.00
2023-04-07T02:31:54.501Z,7.10
2023-04-07T02:34:42.258Z,6.90
2023-04-07T02:37:30.886Z,7.10
2023-04-07T02:40:18.283Z,7.10
2023-04-07T02:43:06.037Z,7.20
2023-04-07T02:45:53.806Z,7.10
2023-04-07T02:48:41.209Z,7.10
2023-04-07T02:51:30.373Z,7.10
2023-04-07T02:54:19.719Z,6.70
2023-04-07T02:57:07.246Z,7.00
2023-04-07T02:59:56.079Z,7.10
2023-04-07T03:02:45.346Z,7.00
2023-04-07T03:05:33.892Z,7.00
2023-04-07T03:08:22.967Z,6.90
2023-04-07T03:11:12.444Z,6.90
2023-04-07T03:14:00.625Z,6.90
2023-04-07T03:16:50.128Z,7.10
2023-04-07T03:19:38.241Z,6.80
2023-04-07T03:22:25.927Z,7.00
2023-04-07T03:25:14.638Z,7.00
2023-04-07T03:28:03.663Z,7.00
2023-04-07T03:30:54.441Z,7.00
2023-04-07T03:33:42.540Z,7.00
2023-04-07T03:36:30.285Z,7.00
2023-04-07T03:39:21.508Z,4.70
2023-04-07T03:42:09.559Z,7.00
2023-04-07T03:44:58.655Z,4.60
2023-04-07T03:47:46.568Z,9.20
2023-04-07T03:50:35.019Z,7.00
2023-04-07T03:53:34.008Z,7.10
2023-04-07T03:56:29.903Z,6.90
2023-04-07T03:59:19.434Z,7.00
2023-04-07T04:02:17.466Z,7.10
2023-04-07T04:05:08.581Z,7.00
2023-04-07T04:07:56.437Z,7.00
2023-04-07T04:10:44.223Z,7.00
2023-04-07T04:13:32.308Z,7.00
2023-04-07T04:16:24.232Z,7.10
2023-04-07T04:19:15.705Z,7.10
2023-04-07T04:22:03.766Z,7.10
2023-04-07T04:24:56.237Z,6.80
2023-04-07T04:27:45.506Z,7.20
2023-04-07T04:30:44.996Z,7.40
2023-04-07T04:33:32.654Z,7.20
2023-04-07T04:36:21.720Z,7.20
2023-04-07T04:39:09.727Z,7.30
2023-04-07T04:41:59.551Z,7.40
2023-04-07T04:44:52.900Z,7.10
2023-04-07T04:47:41.553Z,7.10
2023-04-07T04:50:30.003Z,7.00
2023-04-07T04:53:19.046Z,7.10
2023-04-07T04:56:11.899Z,7.00
2023-04-07T04:59:02.272Z,6.30
2023-04-07T05:02:02.030Z,7.80
2023-04-07T05:04:49.784Z,6.90
2023-04-07T05:07:44.620Z,6.90
2023-04-07T05:10:39.385Z,6.90
2023-04-07T05:13:31.004Z,6.80
2023-04-07T05:16:21.650Z,6.80
2023-04-07T05:19:09.567Z,6.90
2023-04-07T05:21:57.307Z,6.70
2023-04-07T05:24:45.822Z,6.70
2023-04-07T05:27:35.122Z,6.60
2023-04-07T05:30:32.535Z,7.70
2023-04-07T05:33:20.198Z,6.80
2023-04-07T05:36:11.444Z,6.70
2023-04-07T05:39:01.843Z,6.80
2023-04-07T05:41:49.895Z,6.60
2023-04-07T05:44:39.491Z,7.50
2023-04-07T05:47:27.049Z,6.90
2023-04-07T05:50:15.458Z,6.90
2023-04-07T05:53:05.888Z,6.80
2023-04-07T05:55:53.269Z,6.80
2023-04-07T05:58:49.736Z,6.90
2023-04-07T06:01:40.713Z,6.80
2023-04-07T06:04:29.420Z,6.80
2023-04-07T06:07:17.744Z,7.00
2023-04-07T06:10:06.444Z,4.90
2023-04-07T06:12:54.057Z,6.90
2023-04-07T06:15:42.086Z,6.90
2023-04-07T06:18:31.708Z,8.30
2023-04-07T06:21:19.646Z,7.40
2023-04-07T06:24:08.433Z,7.20
2023-04-07T06:26:56.466Z,7.30
2023-04-07T06:29:44.019Z,7.40
2023-04-07T06:32:31.844Z,7.40
2023-04-07T06:35:21.538Z,7.50
2023-04-07T06:38:08.996Z,8.10
2023-04-07T06:40:56.212Z,7.60
2023-04-07T06:43:44.300Z,7.60
2023-04-07T06:46:32.110Z,7.60
2023-04-07T06:49:19.772Z,7.60
2023-04-07T06:52:09.217Z,7.80
2023-04-07T06:54:56.792Z,7.80
2023-04-07T06:57:44.806Z,8.50
2023-04-07T07:00:32.947Z,8.00
2023-04-07T07:03:21.043Z,8.10
2023-04-07T07:06:08.776Z,8.20
2023-04-07T07:08:58.429Z,9.40
2023-04-07T07:11:46.221Z,8.20
2023-04-07T07:14:34.188Z,8.20
2023-04-07T07:17:21.746Z,8.30
2023-04-07T07:20:09.863Z,8.20
2023-04-07T07:22:58.507Z,8.30
2023-04-07T07:25:47.601Z,8.30
2023-04-07T07:28:35.313Z,8.20
2023-04-07T07:31:23.181Z,8.20
2023-04-07T07:34:11.594Z,8.30
2023-04-07T07:36:59.977Z,9.20
2023-04-07T07:39:48.143Z,8.50
2023-04-07T07:42:39.396Z,8.50
2023-04-07T07:45:27.192Z,8.50
2023-04-07T07:48:14.805Z,8.60
2023-04-07T07:51:02.377Z,8.70
2023-04-07T07:53:50.371Z,8.70
2023-04-07T07:56:37.539Z,8.50
2023-04-07T07:59:26.890Z,8.20
2023-04-07T08:02:15.398Z,8.40
2023-04-07T08:05:04.060Z,8.50
2023-04-07T08:07:54.232Z,8.70
2023-04-07T08:10:42.138Z,8.80
2023-04-07T08:13:30.305Z,8.50
2023-04-07T08:16:19.566Z,8.60
2023-04-07T08:19:07.431Z,9.10
2023-04-07T08:21:55.261Z,8.90
2023-04-07T08:24:42.781Z,9.00
2023-04-07T08:27:30.842Z,8.90
2023-04-07T08:30:18.669Z,8.90
2023-04-07T08:33:08.455Z,9.00
2023-04-07T08:35:56.988Z,8.80
2023-04-07T08:38:44.843Z,9.50
2023-04-07T08:41:35.121Z,8.90
2023-04-07T08:44:23.729Z,8.90
2023-04-07T08:47:12.024Z,9.20
2023-04-07T08:50:03.986Z,9.10
2023-04-07T08:52:52.802Z,9.10
2023-04-07T08:55:40.418Z,9.20
2023-04-07T08:58:28.623Z,10.30
2023-04-07T09:01:17.565Z,9.20
2023-04-07T09:04:05.764Z,9.20
2023-04-07T09:06:55.527Z,9.20
2023-04-07T09:09:43.088Z,9.30
2023-04-07T09:12:31.206Z,9.50
2023-04-07T09:15:18.561Z,9.50
2023-04-07T09:18:06.734Z,11.50
2023-04-07T09:20:58.086Z,9.90
2023-04-07T09:23:48.410Z,9.90
2023-04-07T09:26:36.825Z,9.80
2023-04-07T09:29:25.237Z,9.70
2023-04-07T09:32:13.505Z,9.70
2023-04-07T09:35:01.572Z,9.90
2023-04-07T09:38:02.065Z,9.90
2023-04-07T09:40:51.402Z,9.90
2023-04-07T09:43:39.818Z,10.20
2023-04-07T09:46:29.455Z,10.00
2023-04-07T09:49:18.003Z,10.20
2023-04-07T09:52:07.721Z,10.10
2023-04-07T09:54:56.877Z,10.20
2023-04-07T09:57:46.254Z,12.40
2023-04-07T10:00:34.210Z,10.50
2023-04-07T10:03:22.495Z,10.50
2023-04-07T10:06:09.656Z,10.60
2023-04-07T10:08:58.105Z,10.40
2023-04-07T10:11:45.836Z,10.80
2023-04-07T10:14:38.051Z,10.90
2023-04-07T10:17:27.099Z,11.10
2023-04-07T10:20:15.033Z,11.40
2023-04-07T10:23:08.220Z,11.30
2023-04-07T10:25:56.963Z,10.80
2023-04-07T10:28:46.948Z,10.60
2023-04-07T10:31:36.988Z,10.50
2023-04-07T10:34:39.749Z,10.40
2023-04-07T10:37:28.026Z,10.40
2023-04-07T10:40:37.097Z,10.50
2023-04-07T10:43:38.417Z,10.60
2023-04-07T10:46:26.560Z,10.50
2023-04-07T10:49:18.559Z,10.40
2023-04-07T10:52:25.462Z,9.50
2023-04-07T10:55:32.048Z,10.60
2023-04-07T10:58:21.213Z,10.70
2023-04-07T11:01:20.538Z,10.70
2023-04-07T11:04:09.011Z,10.70
2023-04-07T11:06:59.868Z,10.40
2023-04-07T11:09:47.349Z,10.30
2023-04-07T11:12:35.125Z,10.10
2023-04-07T11:15:23.588Z,10.20
2023-04-07T11:18:20.957Z,9.90
2023-04-07T11:21:08.941Z,9.90
2023-04-07T11:23:57.917Z,11.10
2023-04-07T11:26:45.396Z,10.30
2023-04-07T11:29:33.118Z,10.30
2023-04-07T11:32:26.034Z,10.40
2023-04-07T11:35:14.140Z,10.60
2023-04-07T11:38:01.969Z,10.50
2023-04-07T11:40:51.109Z,10.60
2023-04-07T11:43:42.172Z,10.80
2023-04-07T11:46:29.978Z,11.00
2023-04-07T11:49:17.194Z,11.20
2023-04-07T11:52:06.944Z,10.50
2023-04-07T11:54:54.711Z,10.90
2023-04-07T11:57:46.733Z,10.80
2023-04-07T12:00:34.246Z,10.70
2023-04-07T12:03:22.565Z,10.50
2023-04-07T12:06:11.057Z,10.60
2023-04-07T12:08:58.654Z,10.80
2023-04-07T12:11:51.121Z,10.70
2023-04-07T12:14:40.681Z,10.70
2023-04-07T12:17:28.532Z,10.80
2023-04-07T12:20:16.378Z,10.90
2023-04-07T12:23:03.651Z,10.90
2023-04-07T12:25:51.293Z,11.00
2023-04-07T12:28:39.067Z,10.60
2023-04-07T12:31:28.143Z,10.40
2023-04-07T12:34:15.933Z,10.20
2023-04-07T12:37:04.120Z,10.10
2023-04-07T12:39:51.933Z,10.10
2023-04-07T12:42:40.648Z,10.00
2023-04-07T12:45:30.672Z,10.00
2023-04-07T12:48:22.471Z,10.00
2023-04-07T12:51:09.720Z,10.00
2023-04-07T12:53:57.217Z,9.90
2023-04-07T12:56:44.534Z,10.10
2023-04-07T12:59:32.382Z,10.30
2023-04-07T13:02:21.562Z,11.10
2023-04-07T13:05:11.474Z,10.30
2023-04-07T13:07:59.782Z,10.40
2023-04-07T13:10:48.043Z,10.70
2023-04-07T13:13:35.507Z,10.80
2023-04-07T13:16:23.675Z,9.60
2023-04-07T13:19:11.251Z,11.00
2023-04-07T13:21:59.864Z,11.20
2023-04-07T13:24:47.449Z,11.30
2023-04-07T13:27:35.066Z,11.40
2023-04-07T13:30:23.136Z,11.60
2023-04-07T13:33:10.991Z,11.80
2023-04-07T13:35:58.459Z,11.90
2023-04-07T13:38:47.888Z,12.00
2023-04-07T13:41:35.323Z,12.10
2023-04-07T13:44:23.688Z,12.20
2023-04-07T13:47:11.404Z,11.80
2023-04-07T13:49:59.491Z,11.20
2023-04-07T13:52:48.446Z,11.30
2023-04-07T13:55:38.133Z,11.20
2023-04-07T13:58:26.302Z,10.60
2023-04-07T14:01:14.002Z,10.20
2023-04-07T14:04:04.115Z,9.80
2023-04-07T14:06:52.103Z,10.20
2023-04-07T14:09:39.742Z,10.20
2023-04-07T14:12:28.878Z,10.20
2023-04-07T14:15:18.121Z,10.40
2023-04-07T14:18:06.565Z,10.50
2023-04-07T14:20:54.232Z,10.60
2023-04-07T14:23:42.465Z,10.70
2023-04-07T14:26:30.101Z,10.50
2023-04-07T14:29:19.634Z,10.50
2023-04-07T14:32:06.929Z,10.60
2023-04-07T14:34:54.424Z,10.70
2023-04-07T14:37:41.835Z,10.60
2023-04-07T14:40:29.420Z,10.70
2023-04-07T14:43:17.223Z,10.60
2023-04-07T14:46:07.044Z,10.50
2023-04-07T14:48:54.815Z,12.80
2023-04-07T14:51:42.874Z,10.60
2023-04-07T14:54:31.627Z,11.40
2023-04-07T14:57:19.775Z,11.20
2023-04-07T15:00:09.448Z,10.30
2023-04-07T15:02:58.506Z,10.20
2023-04-07T15:05:47.942Z,11.50
2023-04-07T15:08:35.165Z,10.70
2023-04-07T15:11:22.952Z,10.10
2023-04-07T15:14:10.399Z,10.70
2023-04-07T15:16:57.816Z,10.80
2023-04-07T15:19:46.957Z,10.70
2023-04-07T15:22:34.320Z,10.80
2023-04-07T15:25:23.180Z,10.90
2023-04-07T15:28:11.043Z,11.00
2023-04-07T15:30:58.820Z,11.60
2023-04-07T15:33:46.900Z,12.00
2023-04-07T15:36:35.833Z,12.00
2023-04-07T15:39:23.556Z,9.80
2023-04-07T15:42:13.034Z,12.20
2023-04-07T15:45:00.787Z,14.40
2023-04-07T15:47:48.041Z,11.60
2023-04-07T15:50:36.295Z,10.80
2023-04-07T15:53:26.219Z,10.70
2023-04-07T15:56:14.484Z,11.10
2023-04-07T15:59:02.027Z,11.00
2023-04-07T16:01:49.825Z,11.90
2023-04-07T16:04:38.094Z,11.60
2023-04-07T16:07:26.977Z,10.70
2023-04-07T16:10:19.852Z,10.60
2023-04-07T16:13:07.713Z,10.60
2023-04-07T16:15:57.016Z,10.70
2023-04-07T16:18:44.825Z,10.60
2023-04-07T16:21:32.935Z,10.20
2023-04-07T16:24:20.926Z,10.20
2023-04-07T16:27:10.207Z,10.60
2023-04-07T16:29:57.551Z,10.30
2023-04-07T16:32:48.460Z,10.20
2023-04-07T16:35:36.471Z,10.30
2023-04-07T16:38:25.016Z,10.20
2023-04-07T16:41:13.288Z,10.20
2023-04-07T16:44:02.301Z,8.90
2023-04-07T16:46:49.544Z,10.40
2023-04-07T16:49:38.287Z,10.00
2023-04-07T16:52:26.838Z,9.90
2023-04-07T16:55:14.847Z,9.80
2023-04-07T16:58:02.927Z,9.80
2023-04-07T17:00:52.651Z,9.80
2023-04-07T17:03:43.507Z,9.70
2023-04-07T17:06:31.796Z,9.50
2023-04-07T17:09:20.112Z,8.80
2023-04-07T17:12:09.468Z,9.40
2023-04-07T17:14:56.724Z,9.90
2023-04-07T17:17:46.181Z,9.20
2023-04-07T17:20:34.176Z,9.10
2023-04-07T17:23:21.860Z,9.10
2023-04-07T17:26:09.102Z,9.10
2023-04-07T17:28:57.278Z,9.00
2023-04-07T17:31:45.541Z,9.00
2023-04-07T17:34:34.525Z,8.30
2023-04-07T17:37:22.341Z,9.00
2023-04-07T17:40:10.969Z,9.00
2023-04-07T17:42:59.007Z,9.10
2023-04-07T17:45:46.897Z,8.90
2023-04-07T17:48:34.693Z,8.90
2023-04-07T17:51:25.509Z,8.80
2023-04-07T17:54:12.860Z,8.80
2023-04-07T17:57:01.153Z,8.80
2023-04-07T17:59:48.950Z,9.20
2023-04-07T18:02:37.596Z,8.80
2023-04-07T18:05:25.569Z,8.80
2023-04-07T18:08:14.960Z,8.80
2023-04-07T18:11:02.389Z,8.80
2023-04-07T18:13:50.107Z,8.80
2023-04-07T18:16:38.514Z,8.80
2023-04-07T18:19:26.500Z,8.80
2023-04-07T18:22:16.291Z,8.80
2023-04-07T18:25:06.601Z,8.60
2023-04-07T18:27:54.817Z,8.70
2023-04-07T18:30:42.386Z,8.60
2023-04-07T18:33:32.975Z,8.90
2023-04-07T18:36:22.265Z,8.60
2023-04-07T18:39:10.159Z,8.60
2023-04-07T18:42:00.009Z,8.60
2023-04-07T18:44:47.263Z,8.60
2023-04-07T18:47:35.659Z,8.60
2023-04-07T18:50:23.476Z,8.50
2023-04-07T18:53:11.957Z,8.50
2023-04-07T18:56:00.156Z,8.50
2023-04-07T18:58:51.332Z,8.40
2023-04-07T19:01:40.326Z,8.40
2023-04-07T19:04:27.960Z,8.50
2023-04-07T19:07:15.598Z,8.50
2023-04-07T19:10:02.836Z,8.50
2023-04-07T19:12:50.326Z,8.50
2023-04-07T19:15:40.849Z,8.40
2023-04-07T19:18:29.465Z,8.40
2023-04-07T19:21:17.603Z,8.50
2023-04-07T19:24:05.671Z,8.30
2023-04-07T19:26:53.998Z,6.10
2023-04-07T19:29:41.428Z,8.40
2023-04-07T19:32:31.622Z,8.30
2023-04-07T19:35:19.327Z,8.70
2023-04-07T19:38:07.384Z,8.40
2023-04-07T19:40:55.070Z,8.30
2023-04-07T19:43:42.790Z,8.30
2023-04-07T19:46:30.542Z,8.30
2023-04-07T19:49:19.564Z,8.20
2023-04-07T19:52:06.919Z,8.20
2023-04-07T19:54:54.838Z,8.30
2023-04-07T19:57:43.408Z,8.00
2023-04-07T20:00:33.046Z,8.60
2023-04-07T20:03:22.111Z,8.20
2023-04-07T20:06:14.677Z,8.20
2023-04-07T20:09:03.098Z,8.20
2023-04-07T20:11:50.806Z,8.30
2023-04-07T20:14:38.190Z,8.20
2023-04-07T20:17:26.341Z,8.20
2023-04-07T20:20:14.271Z,8.20
2023-04-07T20:23:03.823Z,8.20
2023-04-07T20:25:51.075Z,8.20
2023-04-07T20:28:38.830Z,8.00
2023-04-07T20:31:26.356Z,8.80
2023-04-07T20:34:14.396Z,9.20
2023-04-07T20:37:01.777Z,8.20
2023-04-07T20:39:50.726Z,8.20
2023-04-07T20:42:39.337Z,8.20
2023-04-07T20:45:27.696Z,8.30
2023-04-07T20:48:18.473Z,8.20
2023-04-07T20:51:06.228Z,8.10
2023-04-07T20:53:53.895Z,8.10
2023-04-07T20:56:44.838Z,8.10
2023-04-07T20:59:32.766Z,8.20
2023-04-07T21:02:21.524Z,8.10
2023-04-07T21:05:09.334Z,8.10
2023-04-07T21:07:57.290Z,8.10
2023-04-07T21:10:45.312Z,8.00
2023-04-07T21:13:34.458Z,8.10
2023-04-07T21:16:21.916Z,8.00
2023-04-07T21:19:10.046Z,11.00
2023-04-07T21:21:57.589Z,8.10
2023-04-07T21:24:45.510Z,8.00
2023-04-07T21:27:32.898Z,8.00
2023-04-07T21:30:22.818Z,7.90
2023-04-07T21:33:11.263Z,8.10
2023-04-07T21:36:02.170Z,8.00
2023-04-07T21:38:51.004Z,8.00
2023-04-07T21:41:38.402Z,8.00
2023-04-07T21:44:26.260Z,8.30
2023-04-07T21:47:16.086Z,8.10
2023-04-07T21:50:06.161Z,7.90
2023-04-07T21:52:54.484Z,10.70
2023-04-07T21:55:42.054Z,8.00
2023-04-07T21:58:33.171Z,8.40
2023-04-07T22:01:20.649Z,7.90
2023-04-07T22:04:09.947Z,7.90
2023-04-07T22:06:58.260Z,7.90
2023-04-07T22:09:47.208Z,7.90
2023-04-07T22:12:34.886Z,7.80
2023-04-07T22:15:23.177Z,7.90
2023-04-07T22:18:13.434Z,7.80
2023-04-07T22:21:02.320Z,8.10
2023-04-07T22:23:50.730Z,8.00
2023-04-07T22:26:39.018Z,7.80
2023-04-07T22:29:27.256Z,7.80
2023-04-07T22:32:15.134Z,7.70
2023-04-07T22:35:02.565Z,8.90
2023-04-07T22:37:51.741Z,9.90
2023-04-07T22:40:38.971Z,7.80
2023-04-07T22:43:26.435Z,7.80
2023-04-07T22:46:18.204Z,7.80
2023-04-07T22:49:06.298Z,8.00
2023-04-07T22:51:57.115Z,7.80
2023-04-07T22:54:46.479Z,8.10
2023-04-07T22:57:33.926Z,9.90
2023-04-07T23:00:22.458Z,7.70
2023-04-07T23:03:10.070Z,7.80
2023-04-07T23:05:59.617Z,7.70
2023-04-07T23:08:47.791Z,6.70
2023-04-07T23:11:37.771Z,7.70
2023-04-07T23:14:25.633Z,7.80
2023-04-07T23:17:13.571Z,7.70
2023-04-07T23:20:01.562Z,9.90
2023-04-07T23:22:49.390Z,7.70
2023-04-07T23:25:37.394Z,7.60
2023-04-07T23:28:28.192Z,7.60
2023-04-07T23:31:15.886Z,7.90
2023-04-07T23:34:08.323Z,7.70
2023-04-07T23:36:56.075Z,7.70
2023-04-07T23:39:44.853Z,7.70
2023-04-07T23:42:32.006Z,7.90
2023-04-07T23:45:21.532Z,7.90
2023-04-07T23:48:08.826Z,7.60
2023-04-07T23:50:56.728Z,7.80
2023-04-07T23:53:43.897Z,7.70
2023-04-07T23:56:31.488Z,7.70
2023-04-07T23:59:20.371Z,7.60
